K5-CU

EHJJ · Países Bajos

METAR pasados EHJJ · K5-CU

A continuación puedes ver los METAR de los últimos días. Selecciona un año para ver los METAR más antiguos, desde el año 2007 en adelante.

18 de julio de 2024

Hora Código Tiempo Temp. Visibilidad Cielo nuboso Viento METAR/SPECI
05:55
I
15 °C 4,6 km - 160° 160° 9 kt METAR EHJA 180355Z AUTO 16009KT 4600 BR NSC 15/15 Q1021
05:25
V
15 °C 8 km - 160° 160° 8 kt METAR EHJA 180325Z AUTO 16008KT 8000 NSC 15/15 Q1021
04:55
V
15 °C 10 km+ - 170° 170° 7 kt METAR EHJA 180255Z AUTO 17007KT 9999 NSC 15/15 Q1021
04:25
V
15 °C 10 km+ - 190° 190° 6 kt METAR EHJA 180225Z AUTO 19006KT 9999 NSC 15/15 Q1021
03:55
V
15 °C 10 km+ - 210° 210° 5 kt METAR EHJA 180155Z AUTO 21005KT 9999 NSC 15/15 Q1022
03:25
V
15 °C 10 km+ - 200° 200° 6 kt METAR EHJA 180125Z AUTO 20006KT 9999 NSC 15/14 Q1022
02:55
V
15 °C 10 km+ - 210° 210° 5 kt METAR EHJA 180055Z AUTO 21005KT 9999 NSC 15/14 Q1022
02:25
V
15 °C 10 km+ - 210° 210° 6 kt METAR EHJA 180025Z AUTO 21006KT 9999 NSC 15/14 Q1022
01:55
V
15 °C 10 km+ - 210° 210° 5 kt METAR EHJA 172355Z AUTO 21005KT 9999 NSC 15/14 Q1022
01:25
V
15 °C 10 km+ - 210° 210° 5 kt METAR EHJA 172325Z AUTO 21005KT 9999 NSC 15/14 Q1022
00:55
V
15 °C 10 km+ - 210° 210° 5 kt METAR EHJA 172255Z AUTO 21005KT 9999 NSC 15/14 Q1022
00:25
V
15 °C 10 km+ - 210° 210° 4 kt METAR EHJA 172225Z AUTO 21004KT 9999 NSC 15/14 Q1022

17 de julio de 2024

Hora Código Tiempo Temp. Visibilidad Cielo nuboso Viento METAR/SPECI
23:55
V
15 °C 10 km+ - 210° 210° 4 kt METAR EHJA 172155Z AUTO 21004KT 9999 NSC 15/14 Q1022
23:25
V
15 °C 10 km+ - 230° 230° 7 kt METAR EHJA 172125Z AUTO 23007KT 9999 NCD 15/14 Q1022
22:55
V
15 °C 10 km+ - 230° 230° 8 kt METAR EHJA 172055Z AUTO 23008KT 9999 NSC 15/14 Q1022
22:25
V
15 °C 10 km+ - 230° 230° 7 kt METAR EHJA 172025Z AUTO 23007KT 9999 NSC 15/14 Q1022
21:55
V
15 °C 10 km+ - 230° 230° 7 kt METAR EHJA 171955Z AUTO 23007KT 9999 NCD 15/14 Q1022
21:25
V
15 °C 10 km+ - 230° 230° 8 kt METAR EHJA 171925Z AUTO 23008KT 9999 NSC 15/14 Q1022
20:55
V
15 °C 10 km+ - 230° 230° 6 kt METAR EHJA 171855Z AUTO 23006KT 9999 NSC 15/14 Q1021
20:25
V
15 °C 10 km+ - 230° 230° 5 kt METAR EHJA 171825Z AUTO 23005KT 9999 NSC 15/14 Q1021
19:55
V
15 °C 10 km+ - 230° 230° 5 kt METAR EHJA 171755Z AUTO 23005KT 9999 NSC 15/14 Q1021
19:25
V
15 °C 10 km+ - 230° 230° 6 kt METAR EHJA 171725Z AUTO 23006KT 9999 FEW006/// 15/14 Q1021
18:55
I
15 °C 10 km+ 700 ft 240° 240° 5 kt METAR EHJA 171655Z AUTO 24005KT 9999 SCT006/// BKN007/// 15/14 Q1021
18:25
I
15 °C 10 km+ 600 ft 250° 250° 7 kt METAR EHJA 171625Z AUTO 25007KT 9999 BKN006/// 15/13 Q1021
17:55
I
15 °C 10 km+ 700 ft 260° 260° 10 kt METAR EHJA 171555Z AUTO 26010KT 9999 SCT006/// OVC007/// 15/13 Q1021
17:25
I
15 °C 10 km+ 600 ft 270° 270° 10 kt METAR EHJA 171525Z AUTO 27010KT 9999 BKN006/// OVC007/// 15/13 Q1021
16:55
I
15 °C 10 km+ 500 ft 260° 260° 11 kt METAR EHJA 171455Z AUTO 26011KT 9999 SCT004/// BKN005/// OVC006/// 15/13 Q1021
16:25
L
15 °C 10 km+ 400 ft 260° 260° 11 kt METAR EHJA 171425Z AUTO 26011KT 9999 BKN004/// OVC005/// 15/14 Q1021
15:55
L
15 °C 10 km+ 400 ft 260° 260° 10 kt METAR EHJA 171355Z AUTO 26010KT 9999 BKN004/// BKN005/// 15/14 Q1020
15:25
I
15 °C 10 km+ 500 ft 260° 260° 10 kt METAR EHJA 171325Z AUTO 26010KT 9999 FEW004/// BKN005/// BKN016/// 15/14 Q1020
14:55
M
15 °C 10 km+ 1.300 ft 260° 260° 13 kt METAR EHJA 171255Z AUTO 26013KT 9999 FEW004/// SCT011/// BKN013/// 15/14 Q1020
14:25
L
15 °C 10 km+ 400 ft 260° 260° 9 kt METAR EHJA 171225Z AUTO 26009KT 9999 SCT003/// BKN004/// BKN007/// 15/14 Q1020
13:55
I
15 °C 8 km 600 ft 270° 270° 10 kt METAR EHJA 171155Z AUTO 27010KT 8000 FEW003/// SCT004/// BKN006/// 15/14 Q1020
13:25
M
15 °C 9 km 1.000 ft 270° 270° 9 kt METAR EHJA 171125Z AUTO 27009KT 9000 FEW003/// SCT004/// BKN010/// 15/14 Q1019
12:55
M
15 °C 10 km+ 2.800 ft 260° 260° 7 kt METAR EHJA 171055Z AUTO 26007KT 9999 FEW003/// SCT004/// BKN028/// 15/14 Q1019
12:25
V
15 °C 10 km+ - 250° 250° 6 kt METAR EHJA 171025Z AUTO 25006KT 9999 SCT028/// 15/14 Q1019
11:55
V
15 °C 10 km+ - 250° 250° 5 kt METAR EHJA 170955Z AUTO 25005KT 9999 NSC 15/14 Q1019
11:25
V
15 °C 10 km+ - 250° 250° 5 kt METAR EHJA 170925Z AUTO 25005KT 9999 NSC 15/14 Q1018
10:55
V
15 °C 10 km+ - 240° 240° 8 kt METAR EHJA 170855Z AUTO 24008KT 9999 NSC 15/14 Q1018
10:25
V
15 °C 10 km+ - 240° 240° 8 kt METAR EHJA 170825Z AUTO 24008KT 9999 NSC 15/14 Q1018
09:55
V
15 °C 10 km+ - 240° 240° 9 kt METAR EHJA 170755Z AUTO 24009KT 9999 NSC 15/14 Q1017
09:25
V
15 °C 10 km+ - 250° 250° 8 kt METAR EHJA 170725Z AUTO 25008KT 9999 NSC 15/14 Q1017
08:55
V
15 °C 10 km+ - 250° 250° 8 kt METAR EHJA 170655Z AUTO 25008KT 240V300 9999 NSC 15/14 Q1017
08:25
V
15 °C 10 km+ - 270° 270° 9 kt METAR EHJA 170625Z AUTO 27009KT 9999 NSC 15/13 Q1016
07:55
V
15 °C 10 km+ - 290° 290° 8 kt METAR EHJA 170555Z AUTO 29008KT 9999 FEW005/// 15/14 Q1016
07:25
V
15 °C 10 km+ - 260° 260° 10 kt METAR EHJA 170525Z AUTO 26010KT 9999 NSC 15/13 Q1016
06:55
V
15 °C 10 km+ - 290° 290° 11 kt METAR EHJA 170455Z AUTO 29011KT 9999 FEW006/// 15/13 Q1016
06:25
V
15 °C 10 km+ - 270° 270° 12 kt METAR EHJA 170425Z AUTO 27012KT 9999 SCT005/// SCT007/// 15/14 Q1015
05:55
V
15 °C 10 km+ 4.300 ft 270° 270° 13 kt METAR EHJA 170355Z AUTO 27013KT 9999 SCT005/// SCT007/// BKN043/// 15/13 Q1015
05:25
V
15 °C 10 km+ 3.500 ft 280° 280° 15 kt METAR EHJA 170325Z AUTO 28015KT 9999 FEW006/// BKN035/// OVC044/// 15/13 Q1015
04:55
V
15 °C 10 km+ 3.300 ft 290° 290° 15 kt METAR EHJA 170255Z AUTO 29015KT 9999 OVC033/// 15/13 Q1014
04:25
V
15 °C 10 km+ 3.200 ft 300° 300° 17 kt METAR EHJA 170225Z AUTO 30017KT 9999 FEW005/// OVC032/// 15/13 Q1014
03:55
M
15 °C 10 km+ 1.100 ft 300° 300° 18 kt METAR EHJA 170155Z AUTO 30018KT 9999 FEW005/// SCT008/// BKN011/// 15/13 Q1014
03:25
I
15 °C 10 km+ 900 ft 300° 300° 18 kt METAR EHJA 170125Z AUTO 30018KT 9999 FEW004/// SCT006/// BKN009/// 15/13 Q1014
02:55
M
15 °C 10 km+ 1.000 ft 300° 300° 17 kt METAR EHJA 170055Z AUTO 30017KT 9999 FEW004/// SCT009/// BKN010/// 15/14 Q1013
02:25
M
15 °C 10 km+ 1.200 ft 290° 290° 18 kt METAR EHJA 170025Z AUTO 29018KT 9999 FEW006/// SCT007/// BKN012/// 15/14 Q1013
01:55
M
15 °C 10 km+ 1.800 ft 300° 300° 16 kt METAR EHJA 162355Z AUTO 30016KT 9999 FEW007/// SCT011/// BKN018/// 15/14 Q1013
01:25
M
15 °C 10 km+ 1.600 ft 300° 300° 17 kt METAR EHJA 162325Z AUTO 30017KT 9999 FEW007/// SCT009/// BKN016/// 15/13 Q1012
00:55
M
15 °C 10 km+ 1.100 ft 310° 310° 17 kt METAR EHJA 162255Z AUTO 31017KT 9999 FEW007/// SCT008/// BKN011/// 15/13 Q1012
00:25
I
15 °C 10 km+ 700 ft 320° 320° 18 kt METAR EHJA 162225Z AUTO 32018KT 9999 FEW003/// SCT005/// BKN007/// 15/13 Q1012

16 de julio de 2024

Hora Código Tiempo Temp. Visibilidad Cielo nuboso Viento METAR/SPECI
23:55
I
14 °C 7 km 500 ft 320° 320° 20 kt METAR EHJA 162155Z AUTO 32020KT 7000 FEW003/// BKN005/// OVC006/// 14/14 Q1011
23:25
I
14 °C 10 km+ 500 ft 330° 330° 18 kt METAR EHJA 162125Z AUTO 33018KT 9999 SCT004/// BKN005/// OVC006/// 14/14 Q1011
22:55
L
15 °C 10 km+ 400 ft 330° 330° 17 kt METAR EHJA 162055Z AUTO 33017KT 9999 SCT003/// BKN004/// OVC005/// 15/14 Q1011
22:25
L
15 °C 10 km+ 400 ft 330° 330° 18 kt METAR EHJA 162025Z AUTO 33018KT 9999 FEW002/// BKN004/// OVC005/// 15/14 Q1010
21:55
L
15 °C 10 km+ 200 ft 330° 330° 18 kt METAR EHJA 161955Z AUTO 33018KT 9999 FEW001/// BKN002/// BKN004/// 15/14 Q1010
21:25
L
15 °C 10 km+ 100 ft 330° 330° 18 kt METAR EHJA 161925Z AUTO 33018KT 9999 SCT000/// BKN001/// OVC003/// 15/15 Q1010
20:55
L
15 °C 1,6 km 100 ft 330° 330° 20 kt METAR EHJA 161855Z AUTO 33020KT 1600 BR SCT000/// BKN001/// BKN004/// 15/15 Q1009
20:25
I
15 °C 7 km 900 ft 320° 320° 16 kt METAR EHJA 161825Z AUTO 32016KT 7000 FEW001/// SCT005/// BKN009/// 15/15 Q1009
19:55
V
16 °C 10 km+ 4.700 ft 320° 320° 10 kt METAR EHJA 161755Z AUTO 32010KT 280V350 9999 FEW003/// BKN047/// 16/15 Q1008
19:25
V
15 °C 10 km+ - 320° 320° 10 kt METAR EHJA 161725Z AUTO 32010KT 290V010 9999 FEW003/// 15/14 Q1008
18:55
V
15 °C 10 km+ - 300° 300° 9 kt METAR EHJA 161655Z AUTO 30009KT 9999 NSC 15/14 Q1007
18:25
V
15 °C 10 km+ - 250° 250° 8 kt METAR EHJA 161625Z AUTO 25008KT 9999 FEW007/// 15/14 Q1007
17:55
V
15 °C 10 km+ - 230° 230° 8 kt METAR EHJA 161555Z AUTO 23008KT 9999 FEW005/// 15/14 Q1007
17:25
V
16 °C 10 km+ - 210° 210° 8 kt METAR EHJA 161525Z AUTO 21008KT 170V240 9999 FEW021/// 16/14 Q1007
16:55
V
16 °C 10 km+ - 210° 210° 8 kt METAR EHJA 161455Z AUTO 21008KT 9999 FEW021/// 16/14 Q1007
16:25
V
16 °C 10 km+ - 210° 210° 12 kt METAR EHJA 161425Z AUTO 21012KT 9999 FEW032/// SCT043/// 16/14 Q1007
15:55
M
16 °C 10 km+ 1.400 ft 220° 220° 15 kt METAR EHJA 161355Z AUTO 22015KT 9999 SCT011/// BKN014/// BKN032/// 16/14 Q1007
15:25
M
15 °C 10 km+ 1.000 ft 220° 220° 16 kt METAR EHJA 161325Z AUTO 22016KT 9999 FEW006/// SCT009/// BKN010/// 15/14 Q1007
14:55
I
15 °C 10 km+ 900 ft 220° 220° 17 kt METAR EHJA 161255Z AUTO 22017KT 9999 FEW005/// SCT007/// BKN009/// 15/14 Q1007
14:25
M
15 °C 10 km+ 1.400 ft 220° 220° 16 kt METAR EHJA 161225Z AUTO 22016KT 9999 FEW004/// SCT006/// BKN014/// 15/15 Q1006
13:55
M
15 °C 10 km+ 1.300 ft 220° 220° 20 kt METAR EHJA 161155Z AUTO 22020KT 9999 SCT004/// SCT007/// BKN013/// 15/14 Q1006
13:25
M
15 °C 10 km+ 1.100 ft 220° 220° 23 kt METAR EHJA 161125Z AUTO 22023KT 9999 FEW004/// SCT005/// BKN011/// 15/14 Q1006
12:55
M
15 °C 10 km+ 1.100 ft 220° 220° 21 kt METAR EHJA 161055Z AUTO 22021KT 9999 FEW005/// SCT006/// BKN011/// 15/14 Q1005
12:25
I
15 °C 10 km+ 800 ft 220° 220° 23 kt METAR EHJA 161025Z AUTO 22023KT 9999 FEW005/// SCT007/// BKN008/// 15/14 Q1005
11:55
V
16 °C 10 km+ - 220° 220° 24 kt METAR EHJA 160955Z AUTO 22024KT 9999 FEW004/// SCT007/// 16/15 Q1005
11:25
V
16 °C 10 km+ - 220° 220° 25 kt METAR EHJA 160925Z AUTO 22025KT 9999 FEW003/// 16/15 Q1004
10:55
V
16 °C 10 km+ - 220° 220° 23 kt METAR EHJA 160855Z AUTO 22023KT 9999 ///////// 16/15 Q1004
10:25
V
16 °C 10 km+ - 220° 220° 23 kt METAR EHJA 160825Z AUTO 22023KT 9999 FEW009/// 16/15 Q1004
09:55
V
16 °C 10 km+ - 220° 220° 14 kt METAR EHJA 160755Z AUTO 22014KT 9999 FEW009/// 16/15 Q1004
09:25
V
16 °C 10 km+ - 210° 210° 4 kt METAR EHJA 160725Z AUTO 21004KT 150V300 9999 FEW003/// SCT008/// 16/15 Q1004 RETS
08:55
L
16 °C 800 m 600 ft 110° 110° 12 kt METAR EHJA 160655Z AUTO 11012KT 080V160 0800 +TSRA FEW003/// BKN006/// BKN007/// 16/16 Q1003
08:25
I
16 °C 10 km+ 800 ft 080° 080° 18 kt METAR EHJA 160625Z AUTO 08018KT 9999 -TSRA FEW005 SCT007 BKN008 FEW015CB 16/15 Q1003
07:55
I
16 °C 10 km+ 800 ft 080° 080° 24 kt METAR EHJA 160555Z AUTO 08024KT 9999 FEW007/// BKN008/// BKN018/// 16/15 Q1003 REDZ
07:25
M
16 °C 10 km+ 1.100 ft 080° 080° 24 kt METAR EHJA 160525Z AUTO 08024KT 9999 FEW007/// BKN011/// BKN016/// 16/15 Q1003
06:55
M
16 °C 10 km+ 1.400 ft 080° 080° 20 kt METAR EHJA 160455Z AUTO 08020KT 9999 FEW007/// SCT011/// BKN014/// 16/15 Q1003
06:25
M
16 °C 5 km 4.900 ft 090° 090° 23 kt METAR EHJA 160425Z AUTO 09023KT 5000 -SHRA FEW003/// SCT012/// BKN049/// 16/15 Q1003 RERA
05:55
I
16 °C 3,6 km 2.100 ft 080° 080° 23 kt METAR EHJA 160355Z AUTO 08023KT 3600 SHRA FEW002/// SCT006/// BKN021/// 16/16 Q1003
05:25
I
15 °C 2,8 km 800 ft 070° 070° 21 kt METAR EHJA 160325Z AUTO 07021KT 2800 +TSRA FEW002/// SCT006/// BKN008/// 15/15 Q1004
04:55
I
16 °C 6 km 800 ft 070° 070° 21 kt METAR EHJA 160255Z AUTO 07021KT 6000 SHRA FEW006/// BKN008/// BKN032/// 16/15 Q1004 REDZ
04:25
V
16 °C 10 km+ 3.800 ft 060° 060° 23 kt METAR EHJA 160225Z AUTO 06023KT 9999 -DZRA FEW009/// SCT034/// BKN038/// 16/15 Q1004
03:55
V
16 °C 10 km+ 3.800 ft 060° 060° 22 kt METAR EHJA 160155Z AUTO 06022KT 9999 +DZRA FEW032/// BKN038/// OVC044/// 16/15 Q1005
03:25
V
16 °C 10 km+ 3.700 ft 050° 050° 22 kt METAR EHJA 160125Z AUTO 05022KT 9999 BKN037/// BKN041/// OVC048/// 16/15 Q1005
02:55
V
16 °C 10 km+ 3.800 ft 060° 060° 20 kt METAR EHJA 160055Z AUTO 06020KT 9999 -DZ FEW010/// SCT028/// BKN038/// 16/15 Q1006 REDZ
02:25
V
16 °C 10 km+ 3.300 ft 070° 070° 17 kt METAR EHJA 160025Z AUTO 07017KT 9999 -RA FEW010/// SCT028/// BKN033/// 16/15 Q1006 RERA REDZ
01:55
V
16 °C 10 km+ 3.900 ft 070° 070° 18 kt METAR EHJA 152355Z AUTO 07018KT 9999 SCT033/// BKN039/// 16/15 Q1007
01:25
V
16 °C 10 km+ 4.200 ft 060° 060° 13 kt METAR EHJA 152325Z AUTO 06013KT 9999 FEW012/// SCT038/// BKN042/// 16/15 Q1007 REDZ
00:55
V
16 °C 9 km 4.500 ft 070° 070° 12 kt METAR EHJA 152255Z AUTO 07012KT 9000 -RA FEW018/// SCT039/// BKN045/// 16/15 Q1008 RERA REDZ
00:25
V
16 °C 10 km+ - 080° 080° 12 kt METAR EHJA 152225Z AUTO 08012KT 9999 -RADZ FEW044/// 16/15 Q1008

15 de julio de 2024

Hora Código Tiempo Temp. Visibilidad Cielo nuboso Viento METAR/SPECI
23:55
V
16 °C 10 km+ 4.700 ft 090° 090° 12 kt METAR EHJA 152155Z AUTO 09012KT 9999 -DZ SCT041/// BKN047/// 16/15 Q1008 REDZ
23:25
V
16 °C 10 km+ 4.100 ft 120° 120° 18 kt METAR EHJA 152125Z AUTO 12018KT 9999 +DZ BKN041/// BKN048/// 16/15 Q1008
22:55
V
16 °C 10 km+ - 100° 100° 18 kt METAR EHJA 152055Z AUTO 10018KT 9999 DZ FEW041/// 16/15 Q1008
22:25
V
16 °C 10 km+ - 120° 120° 17 kt METAR EHJA 152025Z AUTO 12017KT 9999 -RA FEW040/// 16/15 Q1008
21:55
V
16 °C 10 km+ - 120° 120° 17 kt METAR EHJA 151955Z AUTO 12017KT 9999 -SHRA FEW040/// 16/15 Q1009 REDZ
21:25
V
16 °C 10 km+ - 120° 120° 15 kt METAR EHJA 151925Z AUTO 12015KT 9999 DZ NSC 16/15 Q1009
20:55
V
16 °C 10 km+ - 120° 120° 13 kt METAR EHJA 151855Z AUTO 12013KT 9999 -DZ NSC 16/15 Q1009 REDZ
20:25
V
16 °C 10 km+ - 120° 120° 13 kt METAR EHJA 151825Z AUTO 12013KT 9999 -RADZ NSC 16/15 Q1009
19:55
V
16 °C 10 km+ - 120° 120° 13 kt METAR EHJA 151755Z AUTO 12013KT 9999 NSC 16/14 Q1009
19:25
V
16 °C 10 km+ - 120° 120° 14 kt METAR EHJA 151725Z AUTO 12014KT 9999 NSC 16/14 Q1009
18:55
V
16 °C 10 km+ - 120° 120° 11 kt METAR EHJA 151655Z AUTO 12011KT 9999 NSC 16/14 Q1009
18:25
V
16 °C 10 km+ - 110° 110° 10 kt METAR EHJA 151625Z AUTO 11010KT 060V140 9999 NSC 16/15 Q1009
17:55
V
16 °C 10 km+ - 110° 110° 11 kt METAR EHJA 151555Z AUTO 11011KT 070V150 9999 NSC 16/14 Q1010
17:25
V
16 °C 10 km+ - 110° 110° 13 kt METAR EHJA 151525Z AUTO 11013KT 040V150 9999 NSC 16/14 Q1010
16:55
V
17 °C 10 km+ - 100° 100° 11 kt METAR EHJA 151455Z AUTO 10011KT 040V160 9999 NSC 17/14 Q1010
16:25
V
16 °C 10 km+ - 130° 130° 5 kt METAR EHJA 151425Z AUTO 13005KT 9999 NSC 16/14 Q1010
15:55
V
16 °C 10 km+ - 130° 130° 5 kt METAR EHJA 151355Z AUTO 13005KT 9999 NSC 16/14 Q1011
15:25
V
16 °C 10 km+ - 130° 130° 6 kt METAR EHJA 151325Z AUTO 13006KT 070V160 9999 FEW008/// 16/14 Q1011
14:55
V
16 °C 10 km+ - 160° 160° 6 kt METAR EHJA 151255Z AUTO 16006KT 9999 FEW008/// SCT010/// 16/14 Q1011
14:25
V
16 °C 10 km+ - 160° 160° 6 kt METAR EHJA 151225Z AUTO 16006KT 9999 FEW008/// 16/13 Q1011
13:55
V
16 °C 10 km+ - 170° 170° 5 kt METAR EHJA 151155Z AUTO 17005KT 9999 FEW007/// 16/13 Q1011
13:25
V
16 °C 10 km+ - 180° 180° 5 kt METAR EHJA 151125Z AUTO 18005KT 9999 FEW007/// 16/13 Q1011
12:55
V
15 °C 10 km+ - 200° 200° 4 kt METAR EHJA 151055Z AUTO 20004KT 9999 NCD 15/13 Q1011
12:25
V
15 °C 10 km+ - 200° 200° 6 kt METAR EHJA 151025Z AUTO 20006KT 9999 NSC 15/14 Q1011
11:55
V
15 °C 10 km+ - 210° 210° 7 kt METAR EHJA 150955Z AUTO 21007KT 9999 NSC 15/14 Q1011
11:25
V
15 °C 10 km+ - 210° 210° 7 kt METAR EHJA 150925Z AUTO 21007KT 9999 NSC 15/14 Q1011
10:55
V
15 °C 10 km+ - 220° 220° 9 kt METAR EHJA 150855Z AUTO 22009KT 9999 FEW025/// 15/13 Q1011
10:25
V
15 °C 10 km+ 3.900 ft 220° 220° 10 kt METAR EHJA 150825Z AUTO 22010KT 9999 FEW025/// BKN039/// 15/13 Q1011
09:55
V
14 °C 10 km+ 3.500 ft 210° 210° 8 kt METAR EHJA 150755Z AUTO 21008KT 9999 BKN035/// OVC040/// 14/13 Q1011
09:25
V
14 °C 10 km+ 3.400 ft 220° 220° 8 kt METAR EHJA 150725Z AUTO 22008KT 9999 FEW008/// OVC034/// 14/13 Q1011
08:55
V
14 °C 10 km+ 3.200 ft 220° 220° 9 kt METAR EHJA 150655Z AUTO 22009KT 9999 FEW008/// OVC032/// 14/12 Q1011
08:25
V
14 °C 10 km+ 3.200 ft 230° 230° 8 kt METAR EHJA 150625Z AUTO 23008KT 9999 FEW028/// OVC032/// 14/12 Q1011
07:55
M
14 °C 10 km+ 2.700 ft 270° 270° 7 kt METAR EHJA 150555Z AUTO 27007KT 9999 SCT019/// BKN027/// OVC032/// 14/12 Q1011
Cambiar esta información